Terminal Aerodrome Forecast
Issued by NWS Bismarck, ND

Home | Current Version | Previous Version | Text Only | Print | Product List | Glossary On
Versions: 1 2 3 4 5 6 7 8 9 10 11 12 13 14 15 16
289
FTUS43 KBIS 221726
TAFISN
TAF
KISN 221726Z 2218/2318 22004KT P6SM SKC
     FM222100 28004KT P6SM SKC
     FM230000 34004KT P6SM FEW250
     FM231200 25004KT P6SM SCT140=

USA.gov is the U.S. government's official web portal to all federal, state and local government web resources and services.